Eikamaru No.2 — JD3056 — position and weather

sailwx.info

Track history (hours):
 
Tides and Currents Weather Stations Pressure Air Temp Water Temp Dewpoint Dewpoint Depression Visibility Wind Speed Wind Dir Waves Ship Positions

Eikamaru No.2

Last reported at 2017-Oct-18 09:27 UTC. Time now 2017-Oct-22 21:11 UTC.
Position N 34°52' E 139°52'.

Length 60 m; draft 3.3 m.

Type: Tanker. MMSI: 431001342.

Date/timePositionNaut miles runAvg speedWind from/ knotsBaromVisibWave heightAir tempDewpointWater temp
2017-Oct-18 09:27N 34°52' E 139°52'4 9.1
2017-Oct-18 08:59N 34°53' E 139°47'612.6
2017-Oct-18 08:30N 34°59' E 139°43'611.4
2017-Oct-18 08:00N 35°04' E 139°45'510.8
2017-Oct-18 07:30N 35°10' E 139°46'611.2
2017-Oct-18 07:00N 35°15' E 139°46'510.7
2017-Oct-18 06:30N 35°20' E 139°43'510.7
2017-Oct-18 06:00N 35°25' E 139°43'510.8
2017-Oct-18 05:30N 35°29' E 139°48'3 6.2
2017-Oct-18 05:01N 35°31' E 139°45'0 0.0
2017-Oct-18 04:30N 35°31' E 139°45'0 0.0
2017-Oct-18 04:00N 35°31' E 139°45'0 0.0
2017-Oct-18 03:30N 35°31' E 139°45'0 0.0
2017-Oct-18 03:00N 35°31' E 139°45'0 0.0
2017-Oct-18 02:30N 35°31' E 139°45'0 0.0
2017-Oct-18 02:00N 35°31' E 139°45'0 0.0
2017-Oct-18 01:30N 35°31' E 139°45'0 0.0
2017-Oct-18 01:00N 35°31' E 139°45'0 0.0
2017-Oct-18 00:30N 35°31' E 139°45'0 0.0
2017-Oct-18 00:00N 35°31' E 139°45'0 0.0
2017-Oct-17 23:30N 35°31' E 139°45'0 0.0
2017-Oct-17 23:00N 35°31' E 139°45'1 2.9
2017-Oct-17 22:30N 35°30' E 139°46'611.8
2017-Oct-17 22:00N 35°31' E 139°53'5 0.2
2017-Oct-16 22:07N 35°36' E 139°55'0 0.0
2017-Oct-16 10:30N 35°36' E 139°55'0 0.0
2017-Oct-16 07:56N 35°36' E 139°55'0 0.0
2017-Oct-16 07:27N 35°36' E 139°55'0 0.1
2017-Oct-16 06:47N 35°36' E 139°55'9 1.1
2017-Oct-15 23:06N 35°33' E 140°05'9 2.9
2017-Oct-15 20:08N 35°31' E 139°55'110.4
2017-Oct-15 20:00N 35°30' E 139°53'510.2
2017-Oct-15 19:30N 35°26' E 139°49'510.1
2017-Oct-15 19:00N 35°22' E 139°45'5 9.6
2017-Oct-15 18:30N 35°17' E 139°45'5 9.9
2017-Oct-15 18:00N 35°13' E 139°47'510.6
2017-Oct-15 17:30N 35°08' E 139°45'510.1
2017-Oct-15 17:00N 35°05' E 139°40'611.1
2017-Oct-15 16:30N 35°03' E 139°34'612.1
2017-Oct-15 16:00N 34°60' E 139°27'1611.4
2017-Oct-15 14:34N 34°49' E 139°13'  
2017-Oct-13 05:04N 34°37' E 134°57'115.1
2017-Oct-13 05:00N 34°38' E 134°58'714.3
2017-Oct-13 04:30N 34°35' E 135°06'611.8
2017-Oct-13 04:00N 34°36' E 135°13'611.0
2017-Oct-13 03:30N 34°37' E 135°20'5 9.9
2017-Oct-13 03:00N 34°39' E 135°25'0 0.0
2017-Oct-13 02:30N 34°39' E 135°25'0 0.0
2017-Oct-13 02:00N 34°39' E 135°25'0 0.0
2017-Oct-13 01:30N 34°39' E 135°25'0 0.0
2017-Oct-13 00:59N 34°39' E 135°25'0 0.0
2017-Oct-13 00:30N 34°39' E 135°25'0 0.0
2017-Oct-12 23:59N 34°39' E 135°25'0 0.0
2017-Oct-12 23:30N 34°39' E 135°25'0 0.0
2017-Oct-12 23:00N 34°39' E 135°25'2 5.0
2017-Oct-12 22:30N 34°38' E 135°22'1 2.5
2017-Oct-12 22:00N 34°39' E 135°21'0 0.0
2017-Oct-12 21:30N 34°39' E 135°21'0 0.0
2017-Oct-12 21:00N 34°39' E 135°21'0 0.0
2017-Oct-12 20:30N 34°39' E 135°21'0 0.0
2017-Oct-12 20:00N 34°39' E 135°21'0 0.0
2017-Oct-12 19:30N 34°39' E 135°21'0 0.0
2017-Oct-12 19:00N 34°39' E 135°21'0 0.0
2017-Oct-12 18:30N 34°39' E 135°21'0 0.1
2017-Oct-12 18:00N 34°39' E 135°21'3 5.8
2017-Oct-12 17:30N 34°37' E 135°18'510.3
2017-Oct-12 17:00N 34°35' E 135°12'611.5
2017-Oct-12 16:30N 34°35' E 135°05'510.3
2017-Oct-12 15:59N 34°37' E 134°59'  
Track history (hours):
 
Tides and Currents Weather Stations Pressure Air Temp Water Temp Dewpoint Dewpoint Depression Visibility Wind Speed Wind Dir Waves Ship Positions

Eikamaru No.2

Last reported at 2017-Oct-18 09:27 UTC. Time now 2017-Oct-22 21:11 UTC.
Position N 34°52' E 139°52'.

Length 60 m; draft 3.3 m.

Type: Tanker. MMSI: 431001342.

Date/timePositionNaut miles runAvg speedWind from/ knotsBaromVisibWave heightAir tempDewpointWater temp
2017-Oct-18 09:27N 34°52' E 139°52'4 9.1
2017-Oct-18 08:59N 34°53' E 139°47'612.6
2017-Oct-18 08:30N 34°59' E 139°43'611.4
2017-Oct-18 08:00N 35°04' E 139°45'510.8
2017-Oct-18 07:30N 35°10' E 139°46'611.2
2017-Oct-18 07:00N 35°15' E 139°46'510.7
2017-Oct-18 06:30N 35°20' E 139°43'510.7
2017-Oct-18 06:00N 35°25' E 139°43'510.8
2017-Oct-18 05:30N 35°29' E 139°48'3 6.2
2017-Oct-18 05:01N 35°31' E 139°45'0 0.0
2017-Oct-18 04:30N 35°31' E 139°45'0 0.0
2017-Oct-18 04:00N 35°31' E 139°45'0 0.0
2017-Oct-18 03:30N 35°31' E 139°45'0 0.0
2017-Oct-18 03:00N 35°31' E 139°45'0 0.0
2017-Oct-18 02:30N 35°31' E 139°45'0 0.0
2017-Oct-18 02:00N 35°31' E 139°45'0 0.0
2017-Oct-18 01:30N 35°31' E 139°45'0 0.0
2017-Oct-18 01:00N 35°31' E 139°45'0 0.0
2017-Oct-18 00:30N 35°31' E 139°45'0 0.0
2017-Oct-18 00:00N 35°31' E 139°45'0 0.0
2017-Oct-17 23:30N 35°31' E 139°45'0 0.0
2017-Oct-17 23:00N 35°31' E 139°45'1 2.9
2017-Oct-17 22:30N 35°30' E 139°46'611.8
2017-Oct-17 22:00N 35°31' E 139°53'5 0.2
2017-Oct-16 22:07N 35°36' E 139°55'0 0.0
2017-Oct-16 10:30N 35°36' E 139°55'0 0.0
2017-Oct-16 07:56N 35°36' E 139°55'0 0.0
2017-Oct-16 07:27N 35°36' E 139°55'0 0.1
2017-Oct-16 06:47N 35°36' E 139°55'9 1.1
2017-Oct-15 23:06N 35°33' E 140°05'9 2.9
2017-Oct-15 20:08N 35°31' E 139°55'110.4
2017-Oct-15 20:00N 35°30' E 139°53'510.2
2017-Oct-15 19:30N 35°26' E 139°49'510.1
2017-Oct-15 19:00N 35°22' E 139°45'5 9.6
2017-Oct-15 18:30N 35°17' E 139°45'5 9.9
2017-Oct-15 18:00N 35°13' E 139°47'510.6
2017-Oct-15 17:30N 35°08' E 139°45'510.1
2017-Oct-15 17:00N 35°05' E 139°40'611.1
2017-Oct-15 16:30N 35°03' E 139°34'612.1
2017-Oct-15 16:00N 34°60' E 139°27'1611.4
2017-Oct-15 14:34N 34°49' E 139°13'  
2017-Oct-13 05:04N 34°37' E 134°57'115.1
2017-Oct-13 05:00N 34°38' E 134°58'714.3
2017-Oct-13 04:30N 34°35' E 135°06'611.8
2017-Oct-13 04:00N 34°36' E 135°13'611.0
2017-Oct-13 03:30N 34°37' E 135°20'5 9.9
2017-Oct-13 03:00N 34°39' E 135°25'0 0.0
2017-Oct-13 02:30N 34°39' E 135°25'0 0.0
2017-Oct-13 02:00N 34°39' E 135°25'0 0.0
2017-Oct-13 01:30N 34°39' E 135°25'0 0.0
2017-Oct-13 00:59N 34°39' E 135°25'0 0.0
2017-Oct-13 00:30N 34°39' E 135°25'0 0.0
2017-Oct-12 23:59N 34°39' E 135°25'0 0.0
2017-Oct-12 23:30N 34°39' E 135°25'0 0.0
2017-Oct-12 23:00N 34°39' E 135°25'2 5.0
2017-Oct-12 22:30N 34°38' E 135°22'1 2.5
2017-Oct-12 22:00N 34°39' E 135°21'0 0.0
2017-Oct-12 21:30N 34°39' E 135°21'0 0.0
2017-Oct-12 21:00N 34°39' E 135°21'0 0.0
2017-Oct-12 20:30N 34°39' E 135°21'0 0.0
2017-Oct-12 20:00N 34°39' E 135°21'0 0.0
2017-Oct-12 19:30N 34°39' E 135°21'0 0.0
2017-Oct-12 19:00N 34°39' E 135°21'0 0.0
2017-Oct-12 18:30N 34°39' E 135°21'0 0.1
2017-Oct-12 18:00N 34°39' E 135°21'3 5.8
2017-Oct-12 17:30N 34°37' E 135°18'510.3
2017-Oct-12 17:00N 34°35' E 135°12'611.5
2017-Oct-12 16:30N 34°35' E 135°05'510.3
2017-Oct-12 15:59N 34°37' E 134°59'  

Dump ship's entire track history